LEVSLEBZ

Guest
Details From LEVS - Cuatro Vientos
To LEBZ - Talavera La Real
Flight Number -
Tags generated
Created
Modified
Stats Distance 167 nm / 309 km
Max Altitude 18,700 ft / 5,700 m
Waypoints 3
Social Downloads 0
Likes 0
Share VATSIM

Download

Looking for another format? Having issues loading an existing format? Contact us
Advertisement - Login to hide

Notes

Basic altitude profile: - Ascent Rate: 2500ft/min - Ascent Speed: 250kts - Cruise Altitude: 35000ft - Cruise Speed: 420kts - Descent Rate: 1500ft/min - Descent Speed: 250kts

Route

LEVS MELON LEBZ

ID Type Via Altitude Latitude Longitude Leg Dist Tot Dist Heading (true) Name
O LEVS APT - 0 ft / 0 m 40.37133˚ -3.78464˚ - 0 nm - Cuatro Vientos
MELON FIX - 18,700 ft / 5,700 m 39.76671˚ -5.31872˚ 79 nm 79 nm 243° / 242° -
O LEBZ APT - 0 ft / 0 m 38.89127˚ -6.82126˚ 87 nm 166 nm 233° / 233° Talavera La Real

Altitude Profile

Advertisement - Login to hide

Weather


0- 5 10 15 20 25 30 35+ Temperature / ° C

Clouds and Precipitation
Forecast for 2017-12-16 00:00 UTC. Updated an hour ago

Ground ~20,000 ft ~40,000 ft Winds

LEVS

Details ICAO LEVS
Name Cuatro Vientos
Region Spain
Timezone Europe/Madrid (UTC+1.0)
Stats Elevation 2,267 ft / 691 m (AMSL)
Location 40.371330° -3.784644°
Runways 2
Magnetic Variation 0.747° W

METAR

LEVS 151900Z 31003KT 260V050 CAVOK 09/M01 Q1013

Decode

TAF

Not found

Departure Runways

ID Width Length Bearing (true) Bearing (mag) Surface Threshold Offset Overrun Length
10 98 ft / 30 m 4,897 ft / 1,493 m 93.79° 94.54° Asphalt 0 ft / 0 m 197 ft / 60 m
10L 148 ft / 45 m 3,656 ft / 1,114 m 94.12° 94.87° Dirt 0 ft / 0 m 0 ft / 0 m
28 98 ft / 30 m 4,897 ft / 1,493 m 273.80° 274.55° Asphalt 0 ft / 0 m 197 ft / 60 m
28R 148 ft / 45 m 3,656 ft / 1,114 m 274.13° 274.88° Dirt 0 ft / 0 m 0 ft / 0 m

LEBZ

Details ICAO LEBZ (BJZ)
Name Talavera La Real
Region Spain
Timezone Europe/Madrid (UTC+1.0)
Stats Elevation 609 ft / 186 m (AMSL)
Location 38.891271° -6.821256°
Runways 1
Magnetic Variation 1.619° W

METAR

LEBZ 152000Z 28005KT CAVOK 08/06 Q1016

Decode

TAF

TAF LEBZ 151700Z 1518/1618 32006KT 9999 FEW040 TX13/1614Z TN02/1608Z

Decode

Destination Runways

ID Width Length Bearing (true) Bearing (mag) Surface Threshold Offset Overrun Length
13 197 ft / 60 m 9,350 ft / 2,850 m 125.72° 127.34° Asphalt 0 ft / 0 m 980 ft / 299 m
31 197 ft / 60 m 9,350 ft / 2,850 m 305.74° 307.36° Asphalt 0 ft / 0 m 980 ft / 299 m

Approach Navaids

Runway Type Ident Frequency Range Bearing (true) Bearing (mag) Slope Elevation
31 Localiser ITL 110.50 MHz 18 nm / 33 km 305.70° 307.32° - 609 ft / 186 m (AMSL)
31 Glidescope ITL 110.50 MHz 10 nm / 19 km 305.73° 307.35° 3.00° 609 ft / 186 m (AMSL)
31 DME ITL 110.50 MHz 18 nm / 33 km - - - 639 ft / 195 m (AMSL)